Port Moresby Jacksons International Airport

AYPY · National Capital, 巴布亚新几内亚

METAR AYPY · 傑克遜斯國際機場

罗盘
风向 的 风向 330° 傑克遜斯國際機場 14L/32R
风: 5 kt, 2 beaufort

5 kt

改变
0 1.000 2.000 3.000 4.000 5.000
SCT 5.000 ft
METAR AYPY 261600Z 33005KT 9999 SCT050 24/23 Q1007

METAR 傑克遜斯國際機場 - AYPY/POM

傑克遜斯國際機場是,巴布亚新几内亚中的大型机场。 该机场有3条跑道: 14L/32R, 14R/32L 和 14/32. 该领域的国际民航组织标志是AYPY 它的国际航空运输协会代码是POM.

这份报告是针对2022年11月27日 02:00, 当地时间在傑克遜斯國際機場进行的。

机场观察

风向为330°,速度为5 kt。

可见度为10 km 或者更多。

有疏云,零星散落的云朵在5.000 ft的高度。 没有观察到天花板。

温度和风寒是24 °C。 露点为23 °C,相对湿度为94%。 海平面上的气压为1007 hPa (QNH)。

白天

今天,太阳从05:40升起,在18:16降落。 这适用于傑克遜斯國際機場,世界夏令时可能有所不同。 当地时间与世界标准时间之间的时差为+10 小时。 当前,没有夏令时有效。

公司介绍

我们没有关于这个机场的公司信息。

体会

到Vliegles.nl去找飞行课程,跳伞和其他飞行体验。 浏览页面,了解傑克遜斯國際機場附近所有可用的活动。 你也可以使用搜索功能来寻找你所在地附近的特定飞行课程、跳伞或其他飞行体验。

跑道

Id 标题 侧风 逆风 侧风 %
14L/32R 148°-328° 5 kt 3 %
14R/32L 149°-329° 5 kt 2 %
14/32 142°-322° 5 kt 14 %

逆风成分最大的方向会被突出显示,并用于横风计算。 这并不一定意味着这个方向在使用。

乌云

5.000 ft SCT 疏云,零星散落的云朵

温度 & 天气

温度 24 °C
露点 23 °C
相对湿度 94%
Kp-index 2 (0-9)

白天

日出
05:40 (2:32)
中午
11:58
日落
18:16

小工具

你想在你的网站上有一个关于傑克遜斯國際機場的当前航空天气(METAR)的小部件吗?

显示HTML代码

我们和第三方通过cookies跟踪您在我们网站上的互联网行为。如果你继续,我们认为你同意我们的饼干政策